sensor_id;sensor_type;location;lat;lon;timestamp;P1;durP1;ratioP1;P2;durP2;ratioP2
69878;SDS011;57161;43.136;24.706;2023-12-14T00:02:17;38.15;;;25.85;;
69878;SDS011;57161;43.136;24.706;2023-12-14T00:04:43;28.55;;;18.88;;
69878;SDS011;57161;43.136;24.706;2023-12-14T00:07:08;24.60;;;15.70;;
69878;SDS011;57161;43.136;24.706;2023-12-14T00:09:35;21.75;;;14.80;;
69878;SDS011;57161;43.136;24.706;2023-12-14T00:12:01;23.83;;;13.35;;
69878;SDS011;57161;43.136;24.706;2023-12-14T00:14:26;26.30;;;14.77;;
69878;SDS011;57161;43.136;24.706;2023-12-14T00:16:52;27.17;;;16.15;;
69878;SDS011;57161;43.136;24.706;2023-12-14T00:19:18;53.95;;;36.42;;
69878;SDS011;57161;43.136;24.706;2023-12-14T00:21:43;31.35;;;20.33;;
69878;SDS011;57161;43.136;24.706;2023-12-14T00:24:09;30.60;;;18.50;;
69878;SDS011;57161;43.136;24.706;2023-12-14T00:26:34;7.93;;;5.15;;
69878;SDS011;57161;43.136;24.706;2023-12-14T00:29:00;7.90;;;5.43;;
69878;SDS011;57161;43.136;24.706;2023-12-14T00:31:25;9.23;;;4.40;;
69878;SDS011;57161;43.136;24.706;2023-12-14T00:33:51;7.78;;;4.78;;
69878;SDS011;57161;43.136;24.706;2023-12-14T00:36:19;8.93;;;4.40;;
69878;SDS011;57161;43.136;24.706;2023-12-14T00:38:45;6.22;;;4.40;;
69878;SDS011;57161;43.136;24.706;2023-12-14T00:41:11;8.43;;;4.35;;
69878;SDS011;57161;43.136;24.706;2023-12-14T00:43:37;8.90;;;4.50;;
69878;SDS011;57161;43.136;24.706;2023-12-14T00:46:03;7.15;;;3.95;;
69878;SDS011;57161;43.136;24.706;2023-12-14T00:48:28;6.68;;;4.10;;
69878;SDS011;57161;43.136;24.706;2023-12-14T00:50:54;6.78;;;4.50;;
69878;SDS011;57161;43.136;24.706;2023-12-14T00:53:19;8.23;;;4.95;;
69878;SDS011;57161;43.136;24.706;2023-12-14T00:55:45;7.85;;;4.32;;
69878;SDS011;57161;43.136;24.706;2023-12-14T00:58:11;12.63;;;8.05;;
69878;SDS011;57161;43.136;24.706;2023-12-14T01:00:39;7.85;;;5.18;;
69878;SDS011;57161;43.136;24.706;2023-12-14T01:03:04;6.28;;;3.50;;
69878;SDS011;57161;43.136;24.706;2023-12-14T01:05:30;11.70;;;5.80;;
69878;SDS011;57161;43.136;24.706;2023-12-14T01:07:55;8.55;;;4.80;;
69878;SDS011;57161;43.136;24.706;2023-12-14T01:10:21;6.38;;;3.65;;
69878;SDS011;57161;43.136;24.706;2023-12-14T01:12:47;5.35;;;3.53;;
69878;SDS011;57161;43.136;24.706;2023-12-14T01:15:12;5.45;;;3.60;;
69878;SDS011;57161;43.136;24.706;2023-12-14T01:17:38;6.25;;;4.20;;
69878;SDS011;57161;43.136;24.706;2023-12-14T01:20:07;6.10;;;3.88;;
69878;SDS011;57161;43.136;24.706;2023-12-14T01:22:33;6.18;;;3.88;;
69878;SDS011;57161;43.136;24.706;2023-12-14T01:24:58;5.72;;;3.92;;
69878;SDS011;57161;43.136;24.706;2023-12-14T01:27:24;5.45;;;3.80;;
69878;SDS011;57161;43.136;24.706;2023-12-14T01:29:50;6.18;;;3.30;;
69878;SDS011;57161;43.136;24.706;2023-12-14T01:32:15;6.28;;;3.63;;
69878;SDS011;57161;43.136;24.706;2023-12-14T01:34:41;4.90;;;3.40;;
69878;SDS011;57161;43.136;24.706;2023-12-14T01:37:06;20.83;;;11.13;;
69878;SDS011;57161;43.136;24.706;2023-12-14T01:39:32;8.52;;;4.50;;
69878;SDS011;57161;43.136;24.706;2023-12-14T01:41:58;5.35;;;3.95;;
69878;SDS011;57161;43.136;24.706;2023-12-14T01:44:24;4.82;;;3.45;;
69878;SDS011;57161;43.136;24.706;2023-12-14T01:46:49;3.90;;;3.03;;
69878;SDS011;57161;43.136;24.706;2023-12-14T01:49:15;5.63;;;3.30;;
69878;SDS011;57161;43.136;24.706;2023-12-14T01:51:40;4.95;;;3.20;;
69878;SDS011;57161;43.136;24.706;2023-12-14T01:54:06;5.32;;;3.10;;
69878;SDS011;57161;43.136;24.706;2023-12-14T01:56:31;7.13;;;3.88;;
69878;SDS011;57161;43.136;24.706;2023-12-14T01:58:57;7.32;;;3.78;;
69878;SDS011;57161;43.136;24.706;2023-12-14T02:04:05;6.07;;;3.10;;
69878;SDS011;57161;43.136;24.706;2023-12-14T02:06:33;5.30;;;3.15;;
69878;SDS011;57161;43.136;24.706;2023-12-14T02:08:58;4.93;;;3.50;;
69878;SDS011;57161;43.136;24.706;2023-12-14T02:11:24;8.02;;;3.25;;
69878;SDS011;57161;43.136;24.706;2023-12-14T02:13:49;7.97;;;3.55;;
69878;SDS011;57161;43.136;24.706;2023-12-14T02:16:15;8.70;;;3.70;;
69878;SDS011;57161;43.136;24.706;2023-12-14T02:18:40;5.05;;;3.45;;
69878;SDS011;57161;43.136;24.706;2023-12-14T02:21:06;7.70;;;3.25;;
69878;SDS011;57161;43.136;24.706;2023-12-14T02:23:31;5.93;;;3.35;;
69878;SDS011;57161;43.136;24.706;2023-12-14T02:25:58;4.25;;;3.05;;
69878;SDS011;57161;43.136;24.706;2023-12-14T02:28:24;7.20;;;3.42;;
69878;SDS011;57161;43.136;24.706;2023-12-14T02:30:49;6.32;;;3.47;;
69878;SDS011;57161;43.136;24.706;2023-12-14T02:33:14;6.95;;;3.38;;
69878;SDS011;57161;43.136;24.706;2023-12-14T02:35:40;6.88;;;4.93;;
69878;SDS011;57161;43.136;24.706;2023-12-14T02:38:06;6.25;;;4.70;;
69878;SDS011;57161;43.136;24.706;2023-12-14T02:40:31;7.00;;;5.32;;
69878;SDS011;57161;43.136;24.706;2023-12-14T02:42:56;8.25;;;5.00;;
69878;SDS011;57161;43.136;24.706;2023-12-14T02:45:23;6.13;;;3.58;;
69878;SDS011;57161;43.136;24.706;2023-12-14T02:47:48;6.25;;;3.28;;
69878;SDS011;57161;43.136;24.706;2023-12-14T02:50:15;5.60;;;2.90;;
69878;SDS011;57161;43.136;24.706;2023-12-14T02:52:41;5.25;;;3.50;;
69878;SDS011;57161;43.136;24.706;2023-12-14T02:55:07;9.48;;;4.03;;
69878;SDS011;57161;43.136;24.706;2023-12-14T02:57:32;5.35;;;3.67;;
69878;SDS011;57161;43.136;24.706;2023-12-14T02:59:58;7.50;;;4.30;;
69878;SDS011;57161;43.136;24.706;2023-12-14T03:02:23;4.82;;;3.00;;
69878;SDS011;57161;43.136;24.706;2023-12-14T03:04:48;10.43;;;5.13;;
69878;SDS011;57161;43.136;24.706;2023-12-14T03:07:14;8.80;;;5.72;;
69878;SDS011;57161;43.136;24.706;2023-12-14T03:09:40;7.07;;;4.10;;
69878;SDS011;57161;43.136;24.706;2023-12-14T03:12:09;16.52;;;7.78;;
69878;SDS011;57161;43.136;24.706;2023-12-14T03:14:35;20.30;;;10.77;;
69878;SDS011;57161;43.136;24.706;2023-12-14T03:17:01;17.25;;;9.80;;
69878;SDS011;57161;43.136;24.706;2023-12-14T03:19:27;18.67;;;9.75;;
69878;SDS011;57161;43.136;24.706;2023-12-14T03:21:53;19.08;;;11.20;;
69878;SDS011;57161;43.136;24.706;2023-12-14T03:24:18;18.50;;;11.27;;
69878;SDS011;57161;43.136;24.706;2023-12-14T03:26:44;22.45;;;11.77;;
69878;SDS011;57161;43.136;24.706;2023-12-14T03:29:09;19.65;;;10.85;;
69878;SDS011;57161;43.136;24.706;2023-12-14T03:31:35;11.65;;;7.03;;
69878;SDS011;57161;43.136;24.706;2023-12-14T03:34:01;12.30;;;6.38;;
69878;SDS011;57161;43.136;24.706;2023-12-14T03:36:27;13.45;;;6.47;;
69878;SDS011;57161;43.136;24.706;2023-12-14T03:38:53;9.40;;;4.43;;
69878;SDS011;57161;43.136;24.706;2023-12-14T03:41:19;9.35;;;4.32;;
69878;SDS011;57161;43.136;24.706;2023-12-14T03:43:44;6.45;;;3.78;;
69878;SDS011;57161;43.136;24.706;2023-12-14T03:46:10;8.18;;;3.85;;
69878;SDS011;57161;43.136;24.706;2023-12-14T03:48:36;6.75;;;3.70;;
69878;SDS011;57161;43.136;24.706;2023-12-14T03:51:04;6.00;;;3.50;;
69878;SDS011;57161;43.136;24.706;2023-12-14T03:53:30;4.80;;;3.33;;
69878;SDS011;57161;43.136;24.706;2023-12-14T03:55:59;4.82;;;3.17;;
69878;SDS011;57161;43.136;24.706;2023-12-14T03:58:25;7.95;;;3.47;;
69878;SDS011;57161;43.136;24.706;2023-12-14T04:00:51;4.72;;;3.30;;
69878;SDS011;57161;43.136;24.706;2023-12-14T04:03:17;9.73;;;4.47;;
69878;SDS011;57161;43.136;24.706;2023-12-14T04:05:42;7.88;;;5.05;;
69878;SDS011;57161;43.136;24.706;2023-12-14T04:08:09;11.75;;;5.40;;
69878;SDS011;57161;43.136;24.706;2023-12-14T04:10:35;11.88;;;7.80;;
69878;SDS011;57161;43.136;24.706;2023-12-14T04:13:00;12.90;;;8.35;;
69878;SDS011;57161;43.136;24.706;2023-12-14T04:15:26;13.48;;;7.78;;
69878;SDS011;57161;43.136;24.706;2023-12-14T04:17:51;9.70;;;6.35;;
69878;SDS011;57161;43.136;24.706;2023-12-14T04:20:17;22.25;;;14.50;;
69878;SDS011;57161;43.136;24.706;2023-12-14T04:22:43;14.63;;;9.88;;
69878;SDS011;57161;43.136;24.706;2023-12-14T04:25:09;13.85;;;8.82;;
69878;SDS011;57161;43.136;24.706;2023-12-14T04:27:34;13.32;;;8.20;;
69878;SDS011;57161;43.136;24.706;2023-12-14T04:30:00;9.73;;;5.50;;
69878;SDS011;57161;43.136;24.706;2023-12-14T04:32:25;9.38;;;5.90;;
69878;SDS011;57161;43.136;24.706;2023-12-14T04:34:52;11.60;;;6.30;;
69878;SDS011;57161;43.136;24.706;2023-12-14T04:37:17;4.65;;;3.30;;
69878;SDS011;57161;43.136;24.706;2023-12-14T04:39:43;6.38;;;3.60;;
69878;SDS011;57161;43.136;24.706;2023-12-14T04:42:08;8.80;;;5.68;;
69878;SDS011;57161;43.136;24.706;2023-12-14T04:44:34;22.17;;;13.27;;
69878;SDS011;57161;43.136;24.706;2023-12-14T04:46:59;18.10;;;12.38;;
69878;SDS011;57161;43.136;24.706;2023-12-14T04:49:24;19.10;;;12.73;;
69878;SDS011;57161;43.136;24.706;2023-12-14T04:51:50;19.98;;;12.35;;
69878;SDS011;57161;43.136;24.706;2023-12-14T04:54:15;17.70;;;11.52;;
69878;SDS011;57161;43.136;24.706;2023-12-14T04:56:41;23.83;;;14.63;;
69878;SDS011;57161;43.136;24.706;2023-12-14T04:59:09;30.98;;;17.15;;
69878;SDS011;57161;43.136;24.706;2023-12-14T05:01:35;24.45;;;15.68;;
69878;SDS011;57161;43.136;24.706;2023-12-14T05:04:00;27.25;;;15.52;;
69878;SDS011;57161;43.136;24.706;2023-12-14T05:06:25;54.10;;;33.80;;
69878;SDS011;57161;43.136;24.706;2023-12-14T05:08:51;34.17;;;19.70;;
69878;SDS011;57161;43.136;24.706;2023-12-14T05:11:16;20.50;;;11.52;;
69878;SDS011;57161;43.136;24.706;2023-12-14T05:13:42;51.13;;;28.33;;
69878;SDS011;57161;43.136;24.706;2023-12-14T05:16:12;12.02;;;6.03;;
69878;SDS011;57161;43.136;24.706;2023-12-14T05:21:04;10.63;;;7.03;;
69878;SDS011;57161;43.136;24.706;2023-12-14T05:23:30;8.50;;;4.38;;
69878;SDS011;57161;43.136;24.706;2023-12-14T05:25:55;6.88;;;4.28;;
69878;SDS011;57161;43.136;24.706;2023-12-14T05:28:24;11.23;;;7.25;;
69878;SDS011;57161;43.136;24.706;2023-12-14T05:30:49;23.50;;;16.38;;
69878;SDS011;57161;43.136;24.706;2023-12-14T05:33:14;15.25;;;11.55;;
69878;SDS011;57161;43.136;24.706;2023-12-14T05:35:40;12.25;;;6.72;;
69878;SDS011;57161;43.136;24.706;2023-12-14T05:38:05;21.98;;;13.85;;
69878;SDS011;57161;43.136;24.706;2023-12-14T05:40:31;15.43;;;9.52;;
69878;SDS011;57161;43.136;24.706;2023-12-14T05:42:57;22.60;;;16.48;;
69878;SDS011;57161;43.136;24.706;2023-12-14T05:45:22;8.85;;;6.13;;
69878;SDS011;57161;43.136;24.706;2023-12-14T05:47:48;11.75;;;7.32;;
69878;SDS011;57161;43.136;24.706;2023-12-14T05:50:14;36.45;;;17.58;;
69878;SDS011;57161;43.136;24.706;2023-12-14T05:52:39;27.67;;;15.98;;
69878;SDS011;57161;43.136;24.706;2023-12-14T05:55:10;23.70;;;13.52;;
69878;SDS011;57161;43.136;24.706;2023-12-14T05:57:36;38.08;;;23.05;;
69878;SDS011;57161;43.136;24.706;2023-12-14T06:00:02;42.33;;;22.80;;
69878;SDS011;57161;43.136;24.706;2023-12-14T06:02:30;40.88;;;23.88;;
69878;SDS011;57161;43.136;24.706;2023-12-14T06:04:57;55.47;;;32.85;;
69878;SDS011;57161;43.136;24.706;2023-12-14T06:07:23;53.85;;;33.15;;
69878;SDS011;57161;43.136;24.706;2023-12-14T06:09:48;151.70;;;95.60;;
69878;SDS011;57161;43.136;24.706;2023-12-14T06:12:14;70.90;;;42.92;;
69878;SDS011;57161;43.136;24.706;2023-12-14T06:14:40;70.45;;;47.58;;
69878;SDS011;57161;43.136;24.706;2023-12-14T06:17:05;55.95;;;34.30;;
69878;SDS011;57161;43.136;24.706;2023-12-14T06:19:31;48.22;;;26.75;;
69878;SDS011;57161;43.136;24.706;2023-12-14T06:21:57;62.50;;;35.08;;
69878;SDS011;57161;43.136;24.706;2023-12-14T06:24:23;32.17;;;18.17;;
69878;SDS011;57161;43.136;24.706;2023-12-14T06:26:48;10.52;;;7.93;;
69878;SDS011;57161;43.136;24.706;2023-12-14T06:29:14;10.85;;;7.90;;
69878;SDS011;57161;43.136;24.706;2023-12-14T06:31:39;12.70;;;8.93;;
69878;SDS011;57161;43.136;24.706;2023-12-14T06:34:05;15.07;;;10.40;;
69878;SDS011;57161;43.136;24.706;2023-12-14T06:36:32;61.00;;;36.58;;
69878;SDS011;57161;43.136;24.706;2023-12-14T06:38:58;24.17;;;15.63;;
69878;SDS011;57161;43.136;24.706;2023-12-14T06:41:24;18.30;;;13.00;;
69878;SDS011;57161;43.136;24.706;2023-12-14T06:43:51;20.90;;;13.18;;
69878;SDS011;57161;43.136;24.706;2023-12-14T06:46:18;20.27;;;13.07;;
69878;SDS011;57161;43.136;24.706;2023-12-14T06:48:44;23.80;;;14.02;;
69878;SDS011;57161;43.136;24.706;2023-12-14T06:51:10;19.60;;;12.45;;
69878;SDS011;57161;43.136;24.706;2023-12-14T06:53:35;20.50;;;13.90;;
69878;SDS011;57161;43.136;24.706;2023-12-14T06:56:04;20.10;;;13.90;;
69878;SDS011;57161;43.136;24.706;2023-12-14T06:58:30;20.45;;;12.90;;
69878;SDS011;57161;43.136;24.706;2023-12-14T07:00:56;19.52;;;12.63;;
69878;SDS011;57161;43.136;24.706;2023-12-14T07:03:22;36.45;;;21.50;;
69878;SDS011;57161;43.136;24.706;2023-12-14T07:05:47;26.77;;;16.83;;
69878;SDS011;57161;43.136;24.706;2023-12-14T07:08:13;21.98;;;14.35;;
69878;SDS011;57161;43.136;24.706;2023-12-14T07:10:40;29.60;;;17.58;;
69878;SDS011;57161;43.136;24.706;2023-12-14T07:13:06;26.48;;;16.33;;
69878;SDS011;57161;43.136;24.706;2023-12-14T07:15:32;26.42;;;17.20;;
69878;SDS011;57161;43.136;24.706;2023-12-14T07:17:57;29.58;;;19.17;;
69878;SDS011;57161;43.136;24.706;2023-12-14T07:20:22;22.77;;;13.77;;
69878;SDS011;57161;43.136;24.706;2023-12-14T07:22:48;31.77;;;21.10;;
69878;SDS011;57161;43.136;24.706;2023-12-14T07:25:14;28.25;;;16.77;;
69878;SDS011;57161;43.136;24.706;2023-12-14T07:27:39;36.20;;;21.30;;
69878;SDS011;57161;43.136;24.706;2023-12-14T07:30:05;28.40;;;18.35;;
69878;SDS011;57161;43.136;24.706;2023-12-14T07:32:31;54.10;;;32.67;;
69878;SDS011;57161;43.136;24.706;2023-12-14T07:34:56;26.13;;;16.65;;
69878;SDS011;57161;43.136;24.706;2023-12-14T07:37:22;19.23;;;12.75;;
69878;SDS011;57161;43.136;24.706;2023-12-14T07:39:47;30.17;;;17.30;;
69878;SDS011;57161;43.136;24.706;2023-12-14T07:42:12;32.08;;;19.42;;
69878;SDS011;57161;43.136;24.706;2023-12-14T07:44:44;17.60;;;12.15;;
69878;SDS011;57161;43.136;24.706;2023-12-14T07:47:09;51.85;;;30.73;;
69878;SDS011;57161;43.136;24.706;2023-12-14T07:49:35;45.05;;;25.20;;
69878;SDS011;57161;43.136;24.706;2023-12-14T07:52:00;77.40;;;37.80;;
69878;SDS011;57161;43.136;24.706;2023-12-14T07:54:26;42.17;;;22.40;;
69878;SDS011;57161;43.136;24.706;2023-12-14T07:56:52;30.33;;;17.10;;
69878;SDS011;57161;43.136;24.706;2023-12-14T07:59:17;33.50;;;20.10;;
69878;SDS011;57161;43.136;24.706;2023-12-14T08:01:43;29.35;;;18.63;;
69878;SDS011;57161;43.136;24.706;2023-12-14T08:04:08;25.27;;;13.80;;
69878;SDS011;57161;43.136;24.706;2023-12-14T08:06:36;22.65;;;14.35;;
69878;SDS011;57161;43.136;24.706;2023-12-14T08:09:04;25.00;;;15.70;;
69878;SDS011;57161;43.136;24.706;2023-12-14T08:11:30;24.17;;;14.00;;
69878;SDS011;57161;43.136;24.706;2023-12-14T08:13:56;28.83;;;17.27;;
69878;SDS011;57161;43.136;24.706;2023-12-14T08:16:22;35.17;;;21.35;;
69878;SDS011;57161;43.136;24.706;2023-12-14T08:18:47;47.63;;;30.48;;
69878;SDS011;57161;43.136;24.706;2023-12-14T08:21:13;21.13;;;13.73;;
69878;SDS011;57161;43.136;24.706;2023-12-14T08:23:39;26.15;;;16.05;;
69878;SDS011;57161;43.136;24.706;2023-12-14T08:26:05;29.60;;;19.67;;
69878;SDS011;57161;43.136;24.706;2023-12-14T08:28:33;29.65;;;20.92;;
69878;SDS011;57161;43.136;24.706;2023-12-14T08:30:58;24.23;;;16.02;;
69878;SDS011;57161;43.136;24.706;2023-12-14T08:33:27;37.85;;;23.25;;
69878;SDS011;57161;43.136;24.706;2023-12-14T08:35:52;41.42;;;24.38;;
69878;SDS011;57161;43.136;24.706;2023-12-14T08:38:18;34.45;;;22.27;;
69878;SDS011;57161;43.136;24.706;2023-12-14T08:40:43;26.63;;;16.77;;
69878;SDS011;57161;43.136;24.706;2023-12-14T08:43:09;25.40;;;17.73;;
69878;SDS011;57161;43.136;24.706;2023-12-14T08:45:34;35.90;;;21.30;;
69878;SDS011;57161;43.136;24.706;2023-12-14T08:48:00;53.15;;;29.80;;
69878;SDS011;57161;43.136;24.706;2023-12-14T08:50:25;48.15;;;31.60;;
69878;SDS011;57161;43.136;24.706;2023-12-14T08:52:54;50.67;;;30.33;;
69878;SDS011;57161;43.136;24.706;2023-12-14T08:55:20;36.45;;;22.48;;
69878;SDS011;57161;43.136;24.706;2023-12-14T08:57:46;27.75;;;17.10;;
69878;SDS011;57161;43.136;24.706;2023-12-14T09:00:12;24.00;;;16.63;;
69878;SDS011;57161;43.136;24.706;2023-12-14T09:02:38;24.10;;;16.20;;
69878;SDS011;57161;43.136;24.706;2023-12-14T09:05:03;14.48;;;9.35;;
69878;SDS011;57161;43.136;24.706;2023-12-14T09:07:32;17.30;;;11.38;;
69878;SDS011;57161;43.136;24.706;2023-12-14T09:09:58;17.67;;;12.52;;
69878;SDS011;57161;43.136;24.706;2023-12-14T09:12:23;32.65;;;20.08;;
69878;SDS011;57161;43.136;24.706;2023-12-14T09:14:49;13.32;;;8.80;;
69878;SDS011;57161;43.136;24.706;2023-12-14T09:17:14;15.52;;;10.05;;
69878;SDS011;57161;43.136;24.706;2023-12-14T09:19:40;16.48;;;10.98;;
69878;SDS011;57161;43.136;24.706;2023-12-14T09:22:05;19.40;;;12.65;;
69878;SDS011;57161;43.136;24.706;2023-12-14T09:24:31;18.58;;;11.50;;
69878;SDS011;57161;43.136;24.706;2023-12-14T09:26:56;25.38;;;17.08;;
69878;SDS011;57161;43.136;24.706;2023-12-14T09:29:22;21.15;;;14.70;;
69878;SDS011;57161;43.136;24.706;2023-12-14T09:31:47;15.20;;;10.25;;
69878;SDS011;57161;43.136;24.706;2023-12-14T09:34:13;20.17;;;12.00;;
69878;SDS011;57161;43.136;24.706;2023-12-14T09:36:39;14.35;;;8.00;;
69878;SDS011;57161;43.136;24.706;2023-12-14T09:39:05;9.75;;;6.60;;
69878;SDS011;57161;43.136;24.706;2023-12-14T09:41:30;10.05;;;6.88;;
69878;SDS011;57161;43.136;24.706;2023-12-14T09:43:56;9.75;;;6.72;;
69878;SDS011;57161;43.136;24.706;2023-12-14T09:46:23;16.88;;;9.52;;
69878;SDS011;57161;43.136;24.706;2023-12-14T09:48:50;12.63;;;7.55;;
69878;SDS011;57161;43.136;24.706;2023-12-14T09:51:18;10.20;;;6.35;;
69878;SDS011;57161;43.136;24.706;2023-12-14T09:53:43;11.75;;;7.03;;
69878;SDS011;57161;43.136;24.706;2023-12-14T09:56:09;7.38;;;6.00;;
69878;SDS011;57161;43.136;24.706;2023-12-14T09:58:34;14.27;;;8.32;;
69878;SDS011;57161;43.136;24.706;2023-12-14T10:01:00;12.18;;;8.20;;
69878;SDS011;57161;43.136;24.706;2023-12-14T10:03:29;8.02;;;5.68;;
69878;SDS011;57161;43.136;24.706;2023-12-14T10:05:57;7.82;;;5.53;;
69878;SDS011;57161;43.136;24.706;2023-12-14T10:08:24;10.68;;;7.10;;
69878;SDS011;57161;43.136;24.706;2023-12-14T10:10:51;9.20;;;6.40;;
69878;SDS011;57161;43.136;24.706;2023-12-14T10:13:18;9.20;;;5.53;;
69878;SDS011;57161;43.136;24.706;2023-12-14T10:15:45;7.90;;;5.55;;
69878;SDS011;57161;43.136;24.706;2023-12-14T10:18:17;7.45;;;4.93;;
69878;SDS011;57161;43.136;24.706;2023-12-14T10:20:54;12.38;;;6.03;;
69878;SDS011;57161;43.136;24.706;2023-12-14T10:23:21;10.02;;;6.95;;
69878;SDS011;57161;43.136;24.706;2023-12-14T10:25:46;8.00;;;5.18;;
69878;SDS011;57161;43.136;24.706;2023-12-14T10:28:12;9.65;;;5.18;;
69878;SDS011;57161;43.136;24.706;2023-12-14T10:30:41;12.98;;;7.18;;
69878;SDS011;57161;43.136;24.706;2023-12-14T10:33:07;8.77;;;5.07;;
69878;SDS011;57161;43.136;24.706;2023-12-14T10:35:33;6.90;;;4.65;;
69878;SDS011;57161;43.136;24.706;2023-12-14T10:38:05;6.10;;;4.50;;
69878;SDS011;57161;43.136;24.706;2023-12-14T10:40:32;6.25;;;4.22;;
69878;SDS011;57161;43.136;24.706;2023-12-14T10:42:58;7.63;;;5.45;;
69878;SDS011;57161;43.136;24.706;2023-12-14T10:45:27;16.45;;;8.52;;
69878;SDS011;57161;43.136;24.706;2023-12-14T10:47:54;5.90;;;3.90;;
69878;SDS011;57161;43.136;24.706;2023-12-14T10:50:23;5.22;;;3.80;;
69878;SDS011;57161;43.136;24.706;2023-12-14T10:52:50;7.90;;;4.68;;
69878;SDS011;57161;43.136;24.706;2023-12-14T10:55:23;7.60;;;5.43;;
69878;SDS011;57161;43.136;24.706;2023-12-14T10:57:57;9.25;;;5.70;;
69878;SDS011;57161;43.136;24.706;2023-12-14T11:00:23;11.35;;;5.78;;
69878;SDS011;57161;43.136;24.706;2023-12-14T11:02:48;8.13;;;5.38;;
69878;SDS011;57161;43.136;24.706;2023-12-14T11:05:15;9.75;;;5.60;;
69878;SDS011;57161;43.136;24.706;2023-12-14T11:07:45;8.18;;;4.03;;
69878;SDS011;57161;43.136;24.706;2023-12-14T11:10:11;6.57;;;3.55;;
69878;SDS011;57161;43.136;24.706;2023-12-14T11:12:37;5.88;;;3.88;;
69878;SDS011;57161;43.136;24.706;2023-12-14T11:15:04;5.30;;;4.20;;
69878;SDS011;57161;43.136;24.706;2023-12-14T11:17:30;12.82;;;8.30;;
69878;SDS011;57161;43.136;24.706;2023-12-14T11:19:56;9.73;;;5.10;;
69878;SDS011;57161;43.136;24.706;2023-12-14T11:22:26;8.57;;;5.40;;
69878;SDS011;57161;43.136;24.706;2023-12-14T11:24:53;7.80;;;3.30;;
69878;SDS011;57161;43.136;24.706;2023-12-14T11:27:20;5.03;;;3.53;;
69878;SDS011;57161;43.136;24.706;2023-12-14T11:29:56;17.65;;;10.27;;
69878;SDS011;57161;43.136;24.706;2023-12-14T11:32:22;14.88;;;8.77;;
69878;SDS011;57161;43.136;24.706;2023-12-14T11:34:50;14.95;;;8.30;;
69878;SDS011;57161;43.136;24.706;2023-12-14T11:37:15;11.02;;;6.78;;
69878;SDS011;57161;43.136;24.706;2023-12-14T11:39:41;11.48;;;5.85;;
69878;SDS011;57161;43.136;24.706;2023-12-14T11:42:08;6.88;;;3.90;;
69878;SDS011;57161;43.136;24.706;2023-12-14T11:44:35;6.85;;;4.40;;
69878;SDS011;57161;43.136;24.706;2023-12-14T11:47:02;9.40;;;6.18;;
69878;SDS011;57161;43.136;24.706;2023-12-14T11:49:27;7.22;;;4.75;;
69878;SDS011;57161;43.136;24.706;2023-12-14T11:51:56;9.88;;;5.25;;
69878;SDS011;57161;43.136;24.706;2023-12-14T11:54:22;10.88;;;5.93;;
69878;SDS011;57161;43.136;24.706;2023-12-14T11:56:48;11.35;;;5.78;;
69878;SDS011;57161;43.136;24.706;2023-12-14T11:59:18;7.78;;;5.00;;
69878;SDS011;57161;43.136;24.706;2023-12-14T12:01:57;9.23;;;5.65;;
69878;SDS011;57161;43.136;24.706;2023-12-14T12:04:24;9.23;;;5.55;;
69878;SDS011;57161;43.136;24.706;2023-12-14T12:06:58;7.80;;;5.03;;
69878;SDS011;57161;43.136;24.706;2023-12-14T12:12:20;4.93;;;3.92;;
69878;SDS011;57161;43.136;24.706;2023-12-14T12:14:46;9.15;;;5.28;;
69878;SDS011;57161;43.136;24.706;2023-12-14T12:17:14;6.80;;;3.70;;
69878;SDS011;57161;43.136;24.706;2023-12-14T12:19:40;6.00;;;4.10;;
69878;SDS011;57161;43.136;24.706;2023-12-14T12:22:07;4.78;;;3.60;;
69878;SDS011;57161;43.136;24.706;2023-12-14T12:24:33;4.95;;;3.90;;
69878;SDS011;57161;43.136;24.706;2023-12-14T12:26:59;6.10;;;4.38;;
69878;SDS011;57161;43.136;24.706;2023-12-14T12:29:24;5.22;;;3.28;;
69878;SDS011;57161;43.136;24.706;2023-12-14T12:31:50;8.35;;;4.45;;
69878;SDS011;57161;43.136;24.706;2023-12-14T12:34:16;7.75;;;4.82;;
69878;SDS011;57161;43.136;24.706;2023-12-14T12:36:42;8.82;;;5.28;;
69878;SDS011;57161;43.136;24.706;2023-12-14T12:39:08;16.35;;;8.75;;
69878;SDS011;57161;43.136;24.706;2023-12-14T12:41:34;8.38;;;5.10;;
69878;SDS011;57161;43.136;24.706;2023-12-14T12:44:02;8.75;;;5.50;;
69878;SDS011;57161;43.136;24.706;2023-12-14T12:46:37;7.78;;;4.95;;
69878;SDS011;57161;43.136;24.706;2023-12-14T12:49:03;10.65;;;5.53;;
69878;SDS011;57161;43.136;24.706;2023-12-14T12:51:30;10.35;;;6.35;;
69878;SDS011;57161;43.136;24.706;2023-12-14T12:53:59;12.88;;;7.75;;
69878;SDS011;57161;43.136;24.706;2023-12-14T12:56:27;9.32;;;6.40;;
69878;SDS011;57161;43.136;24.706;2023-12-14T12:58:53;11.15;;;6.50;;
69878;SDS011;57161;43.136;24.706;2023-12-14T13:01:22;11.55;;;9.63;;
69878;SDS011;57161;43.136;24.706;2023-12-14T13:03:54;12.55;;;7.82;;
69878;SDS011;57161;43.136;24.706;2023-12-14T13:06:22;8.45;;;6.13;;
69878;SDS011;57161;43.136;24.706;2023-12-14T13:08:49;10.02;;;5.60;;
69878;SDS011;57161;43.136;24.706;2023-12-14T13:11:14;7.05;;;5.10;;
69878;SDS011;57161;43.136;24.706;2023-12-14T13:13:40;25.23;;;15.93;;
69878;SDS011;57161;43.136;24.706;2023-12-14T13:16:06;11.30;;;7.45;;
69878;SDS011;57161;43.136;24.706;2023-12-14T13:18:31;9.25;;;6.28;;
69878;SDS011;57161;43.136;24.706;2023-12-14T13:20:57;17.90;;;10.10;;
69878;SDS011;57161;43.136;24.706;2023-12-14T13:23:22;12.40;;;6.75;;
69878;SDS011;57161;43.136;24.706;2023-12-14T13:25:48;16.77;;;10.60;;
69878;SDS011;57161;43.136;24.706;2023-12-14T13:28:14;11.20;;;8.00;;
69878;SDS011;57161;43.136;24.706;2023-12-14T13:30:40;8.63;;;5.95;;
69878;SDS011;57161;43.136;24.706;2023-12-14T13:33:06;19.38;;;6.70;;
69878;SDS011;57161;43.136;24.706;2023-12-14T13:35:34;10.93;;;6.25;;
69878;SDS011;57161;43.136;24.706;2023-12-14T13:38:00;14.57;;;6.85;;
69878;SDS011;57161;43.136;24.706;2023-12-14T13:40:25;16.15;;;8.43;;
69878;SDS011;57161;43.136;24.706;2023-12-14T13:42:51;15.13;;;9.27;;
69878;SDS011;57161;43.136;24.706;2023-12-14T13:45:18;11.02;;;7.28;;
69878;SDS011;57161;43.136;24.706;2023-12-14T13:47:43;8.63;;;5.82;;
69878;SDS011;57161;43.136;24.706;2023-12-14T13:50:09;9.68;;;6.50;;
69878;SDS011;57161;43.136;24.706;2023-12-14T13:52:34;6.88;;;5.13;;
69878;SDS011;57161;43.136;24.706;2023-12-14T13:55:00;7.35;;;5.18;;
69878;SDS011;57161;43.136;24.706;2023-12-14T13:57:25;8.65;;;6.07;;
69878;SDS011;57161;43.136;24.706;2023-12-14T13:59:52;10.13;;;7.85;;
69878;SDS011;57161;43.136;24.706;2023-12-14T14:02:18;10.95;;;6.35;;
69878;SDS011;57161;43.136;24.706;2023-12-14T14:04:43;12.43;;;9.15;;
69878;SDS011;57161;43.136;24.706;2023-12-14T14:07:08;9.68;;;6.40;;
69878;SDS011;57161;43.136;24.706;2023-12-14T14:09:34;17.02;;;8.98;;
69878;SDS011;57161;43.136;24.706;2023-12-14T14:12:00;14.43;;;8.90;;
69878;SDS011;57161;43.136;24.706;2023-12-14T14:14:25;8.43;;;6.32;;
69878;SDS011;57161;43.136;24.706;2023-12-14T14:16:51;12.10;;;7.38;;
69878;SDS011;57161;43.136;24.706;2023-12-14T14:19:17;13.48;;;8.95;;
69878;SDS011;57161;43.136;24.706;2023-12-14T14:21:42;19.40;;;12.88;;
69878;SDS011;57161;43.136;24.706;2023-12-14T14:24:08;15.85;;;10.43;;
69878;SDS011;57161;43.136;24.706;2023-12-14T14:26:33;11.02;;;7.75;;